sensor_id;sensor_type;location;lat;lon;timestamp;pressure;altitude;pressure_sealevel;temperature;humidity
44765;BME280;30484;52.382;5.260;2022-10-17T00:00:10;101817.09;;;18.34;100.00
44765;BME280;30484;52.382;5.260;2022-10-17T00:02:39;101806.16;;;18.35;100.00
44765;BME280;30484;52.382;5.260;2022-10-17T00:05:08;101799.91;;;18.35;100.00
44765;BME280;30484;52.382;5.260;2022-10-17T00:07:38;101796.09;;;17.97;100.00
44765;BME280;30484;52.382;5.260;2022-10-17T00:10:10;101791.28;;;18.15;100.00
44765;BME280;30484;52.382;5.260;2022-10-17T00:12:42;101797.97;;;18.09;100.00
44765;BME280;30484;52.382;5.260;2022-10-17T00:15:16;101805.53;;;18.04;100.00
44765;BME280;30484;52.382;5.260;2022-10-17T00:17:45;101818.81;;;17.94;100.00
44765;BME280;30484;52.382;5.260;2022-10-17T00:20:18;101825.81;;;18.11;100.00
44765;BME280;30484;52.382;5.260;2022-10-17T00:22:47;101812.81;;;18.17;100.00
44765;BME280;30484;52.382;5.260;2022-10-17T00:25:17;101814.09;;;18.11;100.00
44765;BME280;30484;52.382;5.260;2022-10-17T00:27:46;101784.06;;;18.16;100.00
44765;BME280;30484;52.382;5.260;2022-10-17T00:30:19;101797.13;;;18.09;100.00
44765;BME280;30484;52.382;5.260;2022-10-17T00:32:54;101808.91;;;18.08;100.00
44765;BME280;30484;52.382;5.260;2022-10-17T00:35:23;101811.75;;;17.77;100.00
44765;BME280;30484;52.382;5.260;2022-10-17T00:37:54;101818.41;;;17.86;100.00
44765;BME280;30484;52.382;5.260;2022-10-17T00:40:25;101812.72;;;17.91;100.00
44765;BME280;30484;52.382;5.260;2022-10-17T00:42:53;101823.41;;;17.22;100.00
44765;BME280;30484;52.382;5.260;2022-10-17T00:45:25;101825.81;;;17.83;100.00
44765;BME280;30484;52.382;5.260;2022-10-17T00:47:58;101828.53;;;17.83;100.00
44765;BME280;30484;52.382;5.260;2022-10-17T00:50:28;101822.97;;;17.71;100.00
44765;BME280;30484;52.382;5.260;2022-10-17T00:52:59;101818.50;;;17.43;100.00
44765;BME280;30484;52.382;5.260;2022-10-17T00:55:34;101818.06;;;17.64;100.00
44765;BME280;30484;52.382;5.260;2022-10-17T00:58:05;101811.69;;;17.65;100.00
44765;BME280;30484;52.382;5.260;2022-10-17T01:00:34;101798.63;;;17.86;100.00
44765;BME280;30484;52.382;5.260;2022-10-17T01:03:05;101809.47;;;17.57;100.00
44765;BME280;30484;52.382;5.260;2022-10-17T01:05:36;101803.00;;;18.01;100.00
44765;BME280;30484;52.382;5.260;2022-10-17T01:08:09;101791.16;;;17.89;100.00
44765;BME280;30484;52.382;5.260;2022-10-17T01:10:51;101786.28;;;17.82;100.00
44765;BME280;30484;52.382;5.260;2022-10-17T01:13:26;101780.28;;;17.76;100.00
44765;BME280;30484;52.382;5.260;2022-10-17T01:16:07;101787.06;;;17.69;100.00
44765;BME280;30484;52.382;5.260;2022-10-17T01:18:54;101789.03;;;17.67;100.00
44765;BME280;30484;52.382;5.260;2022-10-17T01:21:36;101798.97;;;17.52;100.00
44765;BME280;30484;52.382;5.260;2022-10-17T01:24:52;101794.97;;;17.72;100.00
44765;BME280;30484;52.382;5.260;2022-10-17T01:31:09;101795.78;;;17.46;100.00
44765;BME280;30484;52.382;5.260;2022-10-17T01:33:59;101796.28;;;17.38;100.00
44765;BME280;30484;52.382;5.260;2022-10-17T01:36:39;101786.94;;;17.43;100.00
44765;BME280;30484;52.382;5.260;2022-10-17T01:39:22;101776.69;;;17.34;100.00
44765;BME280;30484;52.382;5.260;2022-10-17T01:42:01;101783.53;;;17.40;100.00
44765;BME280;30484;52.382;5.260;2022-10-17T01:44:39;101779.13;;;17.39;100.00
44765;BME280;30484;52.382;5.260;2022-10-17T01:47:18;101784.19;;;17.58;100.00
44765;BME280;30484;52.382;5.260;2022-10-17T01:49:51;101783.94;;;17.75;100.00
44765;BME280;30484;52.382;5.260;2022-10-17T01:52:25;101781.84;;;17.24;100.00
44765;BME280;30484;52.382;5.260;2022-10-17T01:54:57;101780.13;;;17.65;100.00
44765;BME280;30484;52.382;5.260;2022-10-17T01:57:35;101770.41;;;17.48;100.00
44765;BME280;30484;52.382;5.260;2022-10-17T02:00:12;101774.66;;;17.52;100.00
44765;BME280;30484;52.382;5.260;2022-10-17T02:02:46;101765.56;;;17.12;100.00
44765;BME280;30484;52.382;5.260;2022-10-17T02:05:17;101768.88;;;17.44;100.00
44765;BME280;30484;52.382;5.260;2022-10-17T02:07:46;101763.56;;;17.42;100.00
44765;BME280;30484;52.382;5.260;2022-10-17T02:10:27;101754.72;;;17.40;100.00
44765;BME280;30484;52.382;5.260;2022-10-17T02:13:05;101744.44;;;17.60;100.00
44765;BME280;30484;52.382;5.260;2022-10-17T02:16:11;101741.09;;;17.42;100.00
44765;BME280;30484;52.382;5.260;2022-10-17T02:22:17;101718.91;;;17.79;100.00
44765;BME280;30484;52.382;5.260;2022-10-17T02:25:02;101734.41;;;17.06;100.00
44765;BME280;30484;52.382;5.260;2022-10-17T02:27:43;101748.66;;;17.64;100.00
44765;BME280;30484;52.382;5.260;2022-10-17T02:30:25;101728.09;;;17.76;100.00
44765;BME280;30484;52.382;5.260;2022-10-17T02:33:00;101731.84;;;18.01;100.00
44765;BME280;30484;52.382;5.260;2022-10-17T02:35:37;101731.69;;;17.62;100.00
44765;BME280;30484;52.382;5.260;2022-10-17T02:38:08;101730.47;;;17.81;100.00
44765;BME280;30484;52.382;5.260;2022-10-17T02:40:40;101728.13;;;17.89;100.00
44765;BME280;30484;52.382;5.260;2022-10-17T02:43:11;101739.16;;;17.71;100.00
44765;BME280;30484;52.382;5.260;2022-10-17T02:45:41;101736.19;;;18.03;100.00
44765;BME280;30484;52.382;5.260;2022-10-17T02:48:17;101734.59;;;17.86;100.00
44765;BME280;30484;52.382;5.260;2022-10-17T02:51:02;101726.25;;;18.04;100.00
44765;BME280;30484;52.382;5.260;2022-10-17T02:53:39;101731.06;;;18.26;100.00
44765;BME280;30484;52.382;5.260;2022-10-17T02:56:17;101719.16;;;18.16;100.00
44765;BME280;30484;52.382;5.260;2022-10-17T02:58:51;101719.66;;;18.08;100.00
44765;BME280;30484;52.382;5.260;2022-10-17T03:01:35;101735.25;;;17.90;100.00
44765;BME280;30484;52.382;5.260;2022-10-17T03:04:07;101733.38;;;18.05;100.00
44765;BME280;30484;52.382;5.260;2022-10-17T03:06:40;101734.25;;;18.45;100.00
44765;BME280;30484;52.382;5.260;2022-10-17T03:09:08;101712.47;;;18.34;100.00
44765;BME280;30484;52.382;5.260;2022-10-17T03:11:40;101723.03;;;17.84;100.00
44765;BME280;30484;52.382;5.260;2022-10-17T03:14:09;101727.97;;;18.05;100.00
44765;BME280;30484;52.382;5.260;2022-10-17T03:16:39;101729.75;;;18.19;100.00
44765;BME280;30484;52.382;5.260;2022-10-17T03:19:09;101732.94;;;17.98;100.00
44765;BME280;30484;52.382;5.260;2022-10-17T03:21:39;101737.34;;;18.39;100.00
44765;BME280;30484;52.382;5.260;2022-10-17T03:24:09;101729.78;;;17.91;100.00
44765;BME280;30484;52.382;5.260;2022-10-17T03:26:39;101746.81;;;18.06;100.00
44765;BME280;30484;52.382;5.260;2022-10-17T03:29:09;101733.19;;;18.08;100.00
44765;BME280;30484;52.382;5.260;2022-10-17T03:31:39;101744.66;;;18.11;100.00
44765;BME280;30484;52.382;5.260;2022-10-17T03:34:08;101743.19;;;18.33;100.00
44765;BME280;30484;52.382;5.260;2022-10-17T03:36:39;101735.22;;;18.57;100.00
44765;BME280;30484;52.382;5.260;2022-10-17T03:39:07;101744.31;;;18.03;100.00
44765;BME280;30484;52.382;5.260;2022-10-17T03:41:36;101753.78;;;18.36;100.00
44765;BME280;30484;52.382;5.260;2022-10-17T03:44:05;101760.94;;;18.37;100.00
44765;BME280;30484;52.382;5.260;2022-10-17T03:46:33;101749.25;;;18.75;100.00
44765;BME280;30484;52.382;5.260;2022-10-17T03:49:02;101746.63;;;18.22;100.00
44765;BME280;30484;52.382;5.260;2022-10-17T03:51:32;101746.47;;;18.64;100.00
44765;BME280;30484;52.382;5.260;2022-10-17T03:54:03;101744.59;;;18.26;100.00
44765;BME280;30484;52.382;5.260;2022-10-17T03:56:31;101747.97;;;18.81;100.00
44765;BME280;30484;52.382;5.260;2022-10-17T03:59:00;101761.81;;;18.38;100.00
44765;BME280;30484;52.382;5.260;2022-10-17T04:01:30;101749.81;;;18.42;100.00
44765;BME280;30484;52.382;5.260;2022-10-17T04:04:01;101747.66;;;18.47;100.00
44765;BME280;30484;52.382;5.260;2022-10-17T04:06:29;101735.69;;;18.90;100.00
44765;BME280;30484;52.382;5.260;2022-10-17T04:09:01;101734.31;;;18.57;100.00
44765;BME280;30484;52.382;5.260;2022-10-17T04:11:32;101727.53;;;18.64;100.00
44765;BME280;30484;52.382;5.260;2022-10-17T04:14:03;101724.16;;;18.60;100.00
44765;BME280;30484;52.382;5.260;2022-10-17T04:16:33;101716.03;;;18.73;100.00
44765;BME280;30484;52.382;5.260;2022-10-17T04:19:02;101723.31;;;18.99;100.00
44765;BME280;30484;52.382;5.260;2022-10-17T04:21:31;101712.88;;;19.05;100.00
44765;BME280;30484;52.382;5.260;2022-10-17T04:24:00;101718.97;;;18.96;100.00
44765;BME280;30484;52.382;5.260;2022-10-17T04:26:33;101736.59;;;19.14;100.00
44765;BME280;30484;52.382;5.260;2022-10-17T04:29:04;101748.75;;;19.09;100.00
44765;BME280;30484;52.382;5.260;2022-10-17T04:31:33;101742.47;;;18.83;100.00
44765;BME280;30484;52.382;5.260;2022-10-17T04:34:02;101739.75;;;19.21;100.00
44765;BME280;30484;52.382;5.260;2022-10-17T04:36:31;101746.44;;;18.38;100.00
44765;BME280;30484;52.382;5.260;2022-10-17T04:39:01;101753.31;;;18.83;100.00
44765;BME280;30484;52.382;5.260;2022-10-17T04:41:32;101745.84;;;18.99;100.00
44765;BME280;30484;52.382;5.260;2022-10-17T04:44:01;101759.34;;;18.86;100.00
44765;BME280;30484;52.382;5.260;2022-10-17T04:46:32;101759.69;;;19.07;100.00
44765;BME280;30484;52.382;5.260;2022-10-17T04:49:00;101769.00;;;18.77;100.00
44765;BME280;30484;52.382;5.260;2022-10-17T04:51:32;101762.28;;;19.09;100.00
44765;BME280;30484;52.382;5.260;2022-10-17T04:54:02;101756.13;;;18.94;100.00
44765;BME280;30484;52.382;5.260;2022-10-17T04:56:34;101760.53;;;18.69;100.00
44765;BME280;30484;52.382;5.260;2022-10-17T04:59:07;101761.63;;;18.79;100.00
44765;BME280;30484;52.382;5.260;2022-10-17T05:01:35;101766.63;;;19.11;100.00
44765;BME280;30484;52.382;5.260;2022-10-17T05:04:04;101764.03;;;18.84;100.00
44765;BME280;30484;52.382;5.260;2022-10-17T05:06:34;101782.97;;;18.71;100.00
44765;BME280;30484;52.382;5.260;2022-10-17T05:09:04;101789.13;;;19.25;100.00
44765;BME280;30484;52.382;5.260;2022-10-17T05:11:37;101774.78;;;19.48;100.00
44765;BME280;30484;52.382;5.260;2022-10-17T05:14:07;101778.09;;;19.15;100.00
44765;BME280;30484;52.382;5.260;2022-10-17T05:16:35;101788.16;;;18.74;100.00
44765;BME280;30484;52.382;5.260;2022-10-17T05:19:05;101781.16;;;18.97;100.00
44765;BME280;30484;52.382;5.260;2022-10-17T05:21:36;101763.03;;;19.11;100.00
44765;BME280;30484;52.382;5.260;2022-10-17T05:24:13;101772.03;;;18.86;100.00
44765;BME280;30484;52.382;5.260;2022-10-17T05:26:43;101776.25;;;19.28;100.00
44765;BME280;30484;52.382;5.260;2022-10-17T05:29:13;101767.94;;;19.06;100.00
44765;BME280;30484;52.382;5.260;2022-10-17T05:31:42;101781.56;;;19.17;100.00
44765;BME280;30484;52.382;5.260;2022-10-17T05:34:10;101779.38;;;18.84;100.00
44765;BME280;30484;52.382;5.260;2022-10-17T05:36:40;101770.53;;;18.94;100.00
44765;BME280;30484;52.382;5.260;2022-10-17T05:39:11;101785.75;;;19.47;100.00
44765;BME280;30484;52.382;5.260;2022-10-17T05:41:40;101800.44;;;19.06;100.00
44765;BME280;30484;52.382;5.260;2022-10-17T05:44:13;101790.56;;;19.18;100.00
44765;BME280;30484;52.382;5.260;2022-10-17T05:46:41;101788.59;;;18.94;100.00
44765;BME280;30484;52.382;5.260;2022-10-17T05:49:10;101799.38;;;18.95;100.00
44765;BME280;30484;52.382;5.260;2022-10-17T05:52:01;101796.31;;;19.13;100.00
44765;BME280;30484;52.382;5.260;2022-10-17T05:54:32;101799.53;;;19.31;100.00
44765;BME280;30484;52.382;5.260;2022-10-17T05:57:02;101779.50;;;19.21;100.00
44765;BME280;30484;52.382;5.260;2022-10-17T05:59:32;101781.34;;;19.20;100.00
44765;BME280;30484;52.382;5.260;2022-10-17T06:02:01;101787.00;;;19.04;100.00
44765;BME280;30484;52.382;5.260;2022-10-17T06:04:32;101788.75;;;19.55;100.00
44765;BME280;30484;52.382;5.260;2022-10-17T06:07:01;101784.03;;;19.70;100.00
44765;BME280;30484;52.382;5.260;2022-10-17T06:09:29;101777.72;;;19.45;100.00
44765;BME280;30484;52.382;5.260;2022-10-17T06:11:58;101781.34;;;19.70;100.00
44765;BME280;30484;52.382;5.260;2022-10-17T06:14:27;101777.19;;;19.77;100.00
44765;BME280;30484;52.382;5.260;2022-10-17T06:16:58;101780.66;;;19.79;100.00
44765;BME280;30484;52.382;5.260;2022-10-17T06:19:27;101786.00;;;19.81;100.00
44765;BME280;30484;52.382;5.260;2022-10-17T06:21:58;101787.00;;;19.67;100.00
44765;BME280;30484;52.382;5.260;2022-10-17T06:24:27;101792.91;;;19.72;100.00
44765;BME280;30484;52.382;5.260;2022-10-17T06:26:56;101796.94;;;19.29;100.00
44765;BME280;30484;52.382;5.260;2022-10-17T06:29:25;101805.19;;;19.02;100.00
44765;BME280;30484;52.382;5.260;2022-10-17T06:31:54;101796.75;;;19.70;100.00
44765;BME280;30484;52.382;5.260;2022-10-17T06:34:24;101816.31;;;19.36;100.00
44765;BME280;30484;52.382;5.260;2022-10-17T06:36:53;101811.25;;;19.19;100.00
44765;BME280;30484;52.382;5.260;2022-10-17T06:39:22;101824.78;;;19.44;100.00
44765;BME280;30484;52.382;5.260;2022-10-17T06:41:53;101821.75;;;19.36;100.00
44765;BME280;30484;52.382;5.260;2022-10-17T06:44:23;101837.06;;;19.11;100.00
44765;BME280;30484;52.382;5.260;2022-10-17T06:46:57;101851.84;;;19.57;100.00
44765;BME280;30484;52.382;5.260;2022-10-17T06:49:30;101846.97;;;19.49;100.00
44765;BME280;30484;52.382;5.260;2022-10-17T06:52:01;101840.97;;;19.70;100.00
44765;BME280;30484;52.382;5.260;2022-10-17T06:54:30;101848.50;;;19.41;100.00
44765;BME280;30484;52.382;5.260;2022-10-17T06:57:00;101873.91;;;19.27;100.00
44765;BME280;30484;52.382;5.260;2022-10-17T06:59:29;101868.00;;;19.59;100.00
44765;BME280;30484;52.382;5.260;2022-10-17T07:02:00;101858.91;;;19.60;100.00
44765;BME280;30484;52.382;5.260;2022-10-17T07:04:37;101869.75;;;19.60;100.00
44765;BME280;30484;52.382;5.260;2022-10-17T07:07:06;101867.31;;;19.68;100.00
44765;BME280;30484;52.382;5.260;2022-10-17T07:09:35;101878.53;;;19.25;100.00
44765;BME280;30484;52.382;5.260;2022-10-17T07:12:07;101870.22;;;19.78;100.00
44765;BME280;30484;52.382;5.260;2022-10-17T07:14:38;101862.09;;;19.91;100.00
44765;BME280;30484;52.382;5.260;2022-10-17T07:17:07;101864.06;;;19.76;100.00
44765;BME280;30484;52.382;5.260;2022-10-17T07:19:38;101876.66;;;19.90;100.00
44765;BME280;30484;52.382;5.260;2022-10-17T07:22:10;101879.06;;;19.81;100.00
44765;BME280;30484;52.382;5.260;2022-10-17T07:24:40;101882.75;;;19.80;100.00
44765;BME280;30484;52.382;5.260;2022-10-17T07:27:09;101895.03;;;20.10;100.00
44765;BME280;30484;52.382;5.260;2022-10-17T07:29:39;101889.38;;;19.51;100.00
44765;BME280;30484;52.382;5.260;2022-10-17T07:32:09;101899.06;;;20.05;100.00
44765;BME280;30484;52.382;5.260;2022-10-17T07:34:39;101905.75;;;19.49;100.00
44765;BME280;30484;52.382;5.260;2022-10-17T07:37:07;101910.69;;;19.68;100.00
44765;BME280;30484;52.382;5.260;2022-10-17T07:39:36;101908.81;;;20.07;100.00
44765;BME280;30484;52.382;5.260;2022-10-17T07:42:07;101896.53;;;20.14;100.00
44765;BME280;30484;52.382;5.260;2022-10-17T07:44:36;101883.88;;;20.02;100.00
44765;BME280;30484;52.382;5.260;2022-10-17T07:47:05;101880.59;;;20.10;100.00
44765;BME280;30484;52.382;5.260;2022-10-17T07:49:40;101884.94;;;20.61;100.00
44765;BME280;30484;52.382;5.260;2022-10-17T07:52:10;101898.66;;;20.46;100.00
44765;BME280;30484;52.382;5.260;2022-10-17T07:54:39;101923.59;;;20.03;100.00
44765;BME280;30484;52.382;5.260;2022-10-17T07:57:09;101930.19;;;20.36;100.00
44765;BME280;30484;52.382;5.260;2022-10-17T07:59:38;101924.47;;;20.28;100.00
44765;BME280;30484;52.382;5.260;2022-10-17T08:02:09;101944.47;;;20.27;100.00
44765;BME280;30484;52.382;5.260;2022-10-17T08:04:43;101958.00;;;19.77;100.00
44765;BME280;30484;52.382;5.260;2022-10-17T08:07:12;101971.84;;;20.11;100.00
44765;BME280;30484;52.382;5.260;2022-10-17T08:09:50;102009.09;;;19.96;100.00
44765;BME280;30484;52.382;5.260;2022-10-17T08:12:19;102021.22;;;20.16;100.00
44765;BME280;30484;52.382;5.260;2022-10-17T08:14:49;102032.13;;;20.40;100.00
44765;BME280;30484;52.382;5.260;2022-10-17T08:17:19;102056.22;;;20.45;100.00
44765;BME280;30484;52.382;5.260;2022-10-17T08:19:51;102077.13;;;20.18;100.00
44765;BME280;30484;52.382;5.260;2022-10-17T08:22:20;102080.38;;;20.24;100.00
44765;BME280;30484;52.382;5.260;2022-10-17T08:24:49;102092.09;;;20.11;100.00
44765;BME280;30484;52.382;5.260;2022-10-17T08:27:18;102090.41;;;20.60;100.00
44765;BME280;30484;52.382;5.260;2022-10-17T08:29:53;102083.16;;;20.35;100.00
44765;BME280;30484;52.382;5.260;2022-10-17T08:32:25;102088.31;;;20.27;100.00
44765;BME280;30484;52.382;5.260;2022-10-17T08:34:57;102091.31;;;20.35;100.00
44765;BME280;30484;52.382;5.260;2022-10-17T08:37:26;102083.34;;;20.71;100.00
44765;BME280;30484;52.382;5.260;2022-10-17T08:39:58;102084.00;;;20.61;100.00
44765;BME280;30484;52.382;5.260;2022-10-17T08:42:56;102090.75;;;20.56;100.00
44765;BME280;30484;52.382;5.260;2022-10-17T08:45:33;102089.91;;;20.42;100.00
44765;BME280;30484;52.382;5.260;2022-10-17T08:48:09;102068.34;;;20.65;100.00
44765;BME280;30484;52.382;5.260;2022-10-17T08:50:44;102057.59;;;21.00;100.00
44765;BME280;30484;52.382;5.260;2022-10-17T08:53:19;102065.34;;;20.94;100.00
44765;BME280;30484;52.382;5.260;2022-10-17T08:55:52;102047.91;;;21.20;100.00
44765;BME280;30484;52.382;5.260;2022-10-17T08:58:25;102030.66;;;20.97;100.00
44765;BME280;30484;52.382;5.260;2022-10-17T09:01:03;102051.22;;;20.51;100.00
44765;BME280;30484;52.382;5.260;2022-10-17T09:04:03;102065.13;;;20.97;100.00
44765;BME280;30484;52.382;5.260;2022-10-17T09:06:39;102066.75;;;20.99;100.00
44765;BME280;30484;52.382;5.260;2022-10-17T09:09:24;102028.97;;;20.83;100.00
44765;BME280;30484;52.382;5.260;2022-10-17T09:12:11;102004.06;;;21.14;100.00
44765;BME280;30484;52.382;5.260;2022-10-17T09:15:02;102012.72;;;21.54;100.00
44765;BME280;30484;52.382;5.260;2022-10-17T09:17:49;102003.41;;;21.10;100.00
44765;BME280;30484;52.382;5.260;2022-10-17T09:20:22;102032.69;;;20.45;100.00
44765;BME280;30484;52.382;5.260;2022-10-17T09:22:58;102042.38;;;20.11;100.00
44765;BME280;30484;52.382;5.260;2022-10-17T09:25:31;102068.44;;;20.76;100.00
44765;BME280;30484;52.382;5.260;2022-10-17T09:28:11;102081.00;;;20.90;100.00
44765;BME280;30484;52.382;5.260;2022-10-17T09:30:43;102078.03;;;20.69;100.00
44765;BME280;30484;52.382;5.260;2022-10-17T09:33:16;102093.72;;;20.90;100.00
44765;BME280;30484;52.382;5.260;2022-10-17T09:36:04;102101.59;;;20.56;100.00
44765;BME280;30484;52.382;5.260;2022-10-17T09:38:40;102113.44;;;20.67;100.00
44765;BME280;30484;52.382;5.260;2022-10-17T09:41:18;102102.50;;;20.93;100.00
44765;BME280;30484;52.382;5.260;2022-10-17T09:44:19;102091.88;;;21.14;100.00
44765;BME280;30484;52.382;5.260;2022-10-17T09:47:07;102074.53;;;21.04;100.00
44765;BME280;30484;52.382;5.260;2022-10-17T09:49:41;102084.50;;;21.16;100.00
44765;BME280;30484;52.382;5.260;2022-10-17T09:52:14;102065.56;;;21.15;100.00
44765;BME280;30484;52.382;5.260;2022-10-17T09:54:48;102072.38;;;21.20;100.00
44765;BME280;30484;52.382;5.260;2022-10-17T09:57:21;102067.22;;;21.29;100.00
44765;BME280;30484;52.382;5.260;2022-10-17T09:59:58;102077.78;;;20.72;100.00
44765;BME280;30484;52.382;5.260;2022-10-17T10:02:29;102083.53;;;20.80;100.00
44765;BME280;30484;52.382;5.260;2022-10-17T10:05:05;102087.94;;;20.94;100.00
44765;BME280;30484;52.382;5.260;2022-10-17T10:07:36;102100.72;;;21.05;100.00
44765;BME280;30484;52.382;5.260;2022-10-17T10:10:24;102096.28;;;21.52;100.00
44765;BME280;30484;52.382;5.260;2022-10-17T10:13:06;102102.78;;;21.50;100.00
44765;BME280;30484;52.382;5.260;2022-10-17T10:15:37;102129.44;;;21.69;100.00
44765;BME280;30484;52.382;5.260;2022-10-17T10:18:29;102114.59;;;21.13;100.00
44765;BME280;30484;52.382;5.260;2022-10-17T10:21:10;102135.75;;;21.45;100.00
44765;BME280;30484;52.382;5.260;2022-10-17T10:23:43;102130.09;;;21.48;100.00
44765;BME280;30484;52.382;5.260;2022-10-17T10:26:34;102126.84;;;21.67;100.00
44765;BME280;30484;52.382;5.260;2022-10-17T10:29:22;102140.38;;;21.32;100.00
44765;BME280;30484;52.382;5.260;2022-10-17T10:31:56;102144.97;;;21.55;100.00
44765;BME280;30484;52.382;5.260;2022-10-17T10:34:29;102147.84;;;21.41;100.00
44765;BME280;30484;52.382;5.260;2022-10-17T10:37:02;102153.22;;;21.30;100.00
44765;BME280;30484;52.382;5.260;2022-10-17T10:40:03;102172.81;;;21.59;100.00
44765;BME280;30484;52.382;5.260;2022-10-17T10:42:36;102177.13;;;21.62;100.00
44765;BME280;30484;52.382;5.260;2022-10-17T10:45:16;102179.97;;;20.99;100.00
44765;BME280;30484;52.382;5.260;2022-10-17T10:48:19;102202.16;;;20.93;100.00
44765;BME280;30484;52.382;5.260;2022-10-17T10:50:52;102200.22;;;20.82;100.00
44765;BME280;30484;52.382;5.260;2022-10-17T10:53:33;102194.16;;;21.15;100.00
44765;BME280;30484;52.382;5.260;2022-10-17T10:56:12;102191.91;;;21.09;100.00
44765;BME280;30484;52.382;5.260;2022-10-17T10:58:50;102193.94;;;21.18;100.00
44765;BME280;30484;52.382;5.260;2022-10-17T11:01:28;102193.13;;;21.05;100.00
44765;BME280;30484;52.382;5.260;2022-10-17T11:04:34;102207.06;;;21.25;100.00
44765;BME280;30484;52.382;5.260;2022-10-17T11:07:10;102206.13;;;21.13;100.00
44765;BME280;30484;52.382;5.260;2022-10-17T11:09:48;102203.47;;;20.87;100.00
44765;BME280;30484;52.382;5.260;2022-10-17T11:12:24;102214.94;;;21.16;100.00
44765;BME280;30484;52.382;5.260;2022-10-17T11:15:02;102214.16;;;21.14;100.00
44765;BME280;30484;52.382;5.260;2022-10-17T11:17:42;102217.56;;;21.05;100.00
44765;BME280;30484;52.382;5.260;2022-10-17T11:20:20;102225.38;;;21.10;100.00
44765;BME280;30484;52.382;5.260;2022-10-17T11:22:54;102212.88;;;21.07;100.00
44765;BME280;30484;52.382;5.260;2022-10-17T11:25:32;102220.41;;;21.03;100.00
44765;BME280;30484;52.382;5.260;2022-10-17T11:28:03;102220.94;;;20.18;100.00
44765;BME280;30484;52.382;5.260;2022-10-17T11:30:47;102226.50;;;20.30;100.00
44765;BME280;30484;52.382;5.260;2022-10-17T11:33:24;102238.63;;;20.24;100.00
44765;BME280;30484;52.382;5.260;2022-10-17T11:36:07;102252.78;;;20.42;100.00
44765;BME280;30484;52.382;5.260;2022-10-17T11:38:46;102251.84;;;20.03;100.00
44765;BME280;30484;52.382;5.260;2022-10-17T11:41:26;102245.47;;;20.17;100.00
44765;BME280;30484;52.382;5.260;2022-10-17T11:44:02;102249.34;;;20.00;100.00
44765;BME280;30484;52.382;5.260;2022-10-17T11:46:33;102247.25;;;20.04;100.00
44765;BME280;30484;52.382;5.260;2022-10-17T11:49:10;102243.16;;;20.11;100.00
44765;BME280;30484;52.382;5.260;2022-10-17T11:51:50;102251.22;;;19.85;100.00
44765;BME280;30484;52.382;5.260;2022-10-17T11:54:33;102250.03;;;19.62;100.00
44765;BME280;30484;52.382;5.260;2022-10-17T11:57:34;102258.88;;;19.51;100.00
44765;BME280;30484;52.382;5.260;2022-10-17T12:00:25;102262.25;;;19.55;100.00
44765;BME280;30484;52.382;5.260;2022-10-17T12:03:28;102271.09;;;19.86;100.00
44765;BME280;30484;52.382;5.260;2022-10-17T12:06:06;102272.59;;;19.62;100.00
44765;BME280;30484;52.382;5.260;2022-10-17T12:08:45;102262.53;;;19.92;100.00
44765;BME280;30484;52.382;5.260;2022-10-17T12:11:32;102255.50;;;20.02;100.00
44765;BME280;30484;52.382;5.260;2022-10-17T12:14:39;102260.09;;;20.14;100.00
44765;BME280;30484;52.382;5.260;2022-10-17T12:17:30;102267.59;;;19.83;100.00
44765;BME280;30484;52.382;5.260;2022-10-17T12:20:31;102273.22;;;20.08;100.00
44765;BME280;30484;52.382;5.260;2022-10-17T12:23:27;102263.44;;;19.78;100.00
44765;BME280;30484;52.382;5.260;2022-10-17T12:25:59;102281.81;;;19.60;100.00
44765;BME280;30484;52.382;5.260;2022-10-17T12:28:32;102282.25;;;19.81;100.00
44765;BME280;30484;52.382;5.260;2022-10-17T12:31:06;102278.66;;;19.80;100.00
44765;BME280;30484;52.382;5.260;2022-10-17T12:33:48;102267.56;;;20.11;100.00
44765;BME280;30484;52.382;5.260;2022-10-17T12:36:40;102270.78;;;19.48;100.00
44765;BME280;30484;52.382;5.260;2022-10-17T12:39:44;102286.94;;;19.92;100.00
44765;BME280;30484;52.382;5.260;2022-10-17T12:42:31;102287.00;;;20.05;100.00
44765;BME280;30484;52.382;5.260;2022-10-17T12:45:00;102295.56;;;19.98;100.00
44765;BME280;30484;52.382;5.260;2022-10-17T12:47:38;102297.66;;;20.21;100.00
44765;BME280;30484;52.382;5.260;2022-10-17T12:50:59;102293.19;;;20.60;100.00
44765;BME280;30484;52.382;5.260;2022-10-17T12:53:57;102286.97;;;20.58;100.00
44765;BME280;30484;52.382;5.260;2022-10-17T12:56:34;102301.25;;;20.74;100.00
44765;BME280;30484;52.382;5.260;2022-10-17T12:59:23;102307.34;;;20.78;100.00
44765;BME280;30484;52.382;5.260;2022-10-17T13:01:57;102301.38;;;20.98;100.00
44765;BME280;30484;52.382;5.260;2022-10-17T13:04:30;102297.78;;;20.72;100.00
44765;BME280;30484;52.382;5.260;2022-10-17T13:07:01;102305.69;;;20.49;100.00
44765;BME280;30484;52.382;5.260;2022-10-17T13:09:37;102317.00;;;20.95;100.00
44765;BME280;30484;52.382;5.260;2022-10-17T13:12:16;102312.13;;;20.74;100.00
44765;BME280;30484;52.382;5.260;2022-10-17T13:14:46;102305.28;;;20.94;100.00
44765;BME280;30484;52.382;5.260;2022-10-17T13:17:24;102300.47;;;21.24;100.00
44765;BME280;30484;52.382;5.260;2022-10-17T13:19:55;102300.75;;;21.32;100.00
44765;BME280;30484;52.382;5.260;2022-10-17T13:22:26;102304.69;;;21.53;100.00
44765;BME280;30484;52.382;5.260;2022-10-17T13:25:15;102308.25;;;21.41;100.00
44765;BME280;30484;52.382;5.260;2022-10-17T13:27:44;102322.19;;;21.49;100.00